| Temperature (°F) | Max | Average | Min |
|---|---|---|---|
| Max Temperature | 99 | 93.1 | 84 |
| Avg Temperature | 86.79 | 81.67 | 75.88 |
| Min Temperature | 79 | 73.53 | 64 |
| Dew Point (°F) | Max | Average | Min |
|---|---|---|---|
| Dew Point | 79 | 70.59 | 51 |
| Precipitation (in) | Max | Average | Min | Sum |
|---|---|---|---|---|
| Precipitation | 0.30 | 0.03 | 0.00 | 0.76 |
| Snowdepth | 0.00 | 0.00 | 0.00 | 0.00 |
| Wind (mph) | Max | Average | Min |
|---|---|---|---|
| Wind | 35 | 7.39 | 0 |
| Gust Wind | 46 | 2.74 | 0 |
| Sea Level Pressure (in) | Max | Average | Min |
|---|---|---|---|
| Sea Level Pressure | 30.07 | 29.94 | 29.8 |
| Date | Temperature (°F) | Dew Point (°F) | Humidity (%) | Wind Speed (mph) | Pressure (in) | Precipitation (in) | ||||||||||
|---|---|---|---|---|---|---|---|---|---|---|---|---|---|---|---|---|
| Max | Avg | Min | Max | Avg | Min | Max | Avg | Min | Max | Avg | Min | Max | Avg | Min | ||
| 6/30/2026 | 91 | 79.1 | 75 | 75 | 73.3 | 72 | 94 | 83.9 | 55 | 24 | 5.5 | 0 | 30.0 | 29.9 | 29.9 | 0.00 |
| 6/29/2026 | 93 | 83.9 | 79 | 77 | 73.5 | 72 | 89 | 72.9 | 49 | 15 | 5.1 | 0 | 30.0 | 30.0 | 29.9 | 0.00 |
| 6/28/2026 | 95 | 82.4 | 73 | 75 | 72.6 | 70 | 100 | 75.1 | 46 | 14 | 3.6 | 0 | 30.0 | 30.0 | 29.9 | 0.00 |
| 6/27/2026 | 97 | 82.0 | 73 | 79 | 73.2 | 68 | 94 | 77.1 | 39 | 20 | 7.5 | 0 | 30.1 | 30.0 | 30.0 | 0.00 |
| 6/26/2026 | 93 | 83.0 | 73 | 75 | 71.5 | 64 | 94 | 70.2 | 38 | 18 | 6.7 | 0 | 30.1 | 30.0 | 30.0 | 0.00 |
| 6/25/2026 | 93 | 80.5 | 73 | 73 | 70.4 | 66 | 94 | 72.4 | 41 | 35 | 7.4 | 0 | 30.0 | 30.0 | 29.9 | 0.00 |
| 6/24/2026 | 93 | 82.1 | 75 | 75 | 71.5 | 66 | 89 | 71.5 | 49 | 12 | 6.9 | 0 | 30.0 | 29.9 | 29.9 | 0.00 |
| 6/23/2026 | 99 | 86.8 | 75 | 75 | 71.0 | 64 | 94 | 62.8 | 32 | 14 | 8.0 | 3 | 30.1 | 30.0 | 29.9 | 0.00 |
| 6/22/2026 | 97 | 83.5 | 73 | 75 | 70.9 | 66 | 100 | 70.1 | 37 | 14 | 5.5 | 0 | 30.0 | 30.0 | 29.9 | 0.00 |
| 6/21/2026 | 91 | 80.5 | 75 | 75 | 73.3 | 72 | 94 | 80.5 | 52 | 12 | 5.5 | 0 | 30.0 | 29.9 | 29.8 | 0.00 |
| 6/20/2026 | 90 | 79.8 | 75 | 75 | 73.3 | 72 | 94 | 81.5 | 62 | 13 | 5.7 | 0 | 30.0 | 29.9 | 29.9 | 0.00 |
| 6/19/2026 | 93 | 84.0 | 75 | 79 | 74.3 | 72 | 94 | 74.5 | 49 | 20 | 9.2 | 0 | 30.0 | 29.9 | 29.9 | 0.00 |
| 6/18/2026 | 97 | 85.1 | 75 | 75 | 73.7 | 70 | 100 | 71.7 | 41 | 20 | 7.7 | 0 | 30.0 | 29.9 | 29.9 | 0.00 |
| 6/17/2026 | 97 | 83.3 | 76 | 79 | 73.2 | 66 | 94 | 74.5 | 39 | 16 | 7.1 | 0 | 29.9 | 29.9 | 29.9 | 0.27 |
| 6/16/2026 | 98 | 82.8 | 76 | 75 | 72.7 | 68 | 90 | 73.6 | 39 | 14 | 7.2 | 0 | 29.9 | 29.9 | 29.8 | 0.00 |
| 6/15/2026 | 96 | 85.5 | 78 | 75 | 71.6 | 67 | 84 | 65.0 | 42 | 20 | 9.3 | 5 | 29.9 | 29.9 | 29.8 | 0.00 |
| 6/14/2026 | 96 | 85.2 | 76 | 76 | 72.9 | 68 | 97 | 69.3 | 40 | 14 | 7.6 | 3 | 30.0 | 29.9 | 29.9 | 0.03 |
| 6/13/2026 | 97 | 83.0 | 74 | 76 | 72.9 | 69 | 100 | 74.3 | 41 | 17 | 6.1 | 0 | 30.0 | 29.9 | 29.8 | 0.05 |
| 6/12/2026 | 96 | 81.4 | 74 | 74 | 71.9 | 67 | 94 | 75.0 | 44 | 17 | 7.2 | 0 | 30.0 | 29.9 | 29.9 | 0.00 |
| 6/11/2026 | 94 | 81.5 | 73 | 73 | 70.3 | 65 | 97 | 71.2 | 44 | 15 | 5.8 | 0 | 30.0 | 29.9 | 29.9 | 0.00 |
| 6/10/2026 | 89 | 80.9 | 75 | 74 | 71.7 | 69 | 91 | 74.5 | 55 | 18 | 9.2 | 0 | 30.0 | 29.9 | 29.9 | 0.00 |
| 6/9/2026 | 89 | 80.4 | 74 | 73 | 70.4 | 68 | 85 | 72.3 | 53 | 13 | 7.1 | 0 | 30.0 | 30.0 | 30.0 | 0.00 |
| 6/8/2026 | 94 | 80.3 | 69 | 70 | 64.4 | 51 | 100 | 64.0 | 25 | 14 | 6.3 | 0 | 30.0 | 30.0 | 29.9 | 0.00 |
| 6/7/2026 | 91 | 78.5 | 67 | 67 | 64.3 | 54 | 93 | 64.9 | 32 | 16 | 6.5 | 0 | 30.0 | 29.9 | 29.9 | 0.00 |
| 6/6/2026 | 90 | 79.0 | 69 | 68 | 65.9 | 63 | 90 | 66.4 | 42 | 15 | 7.3 | 0 | 30.0 | 29.9 | 29.9 | 0.00 |
| 6/5/2026 | 89 | 78.0 | 67 | 64 | 62.1 | 59 | 84 | 59.9 | 37 | 16 | 8.2 | 0 | 30.0 | 30.0 | 30.0 | 0.00 |
| 6/4/2026 | 86 | 75.9 | 64 | 63 | 60.7 | 58 | 81 | 60.4 | 44 | 15 | 10.0 | 3 | 30.0 | 30.0 | 30.0 | 0.00 |
| 6/3/2026 | 84 | 77.2 | 71 | 72 | 65.9 | 58 | 91 | 69.9 | 44 | 21 | 13.5 | 0 | 30.0 | 30.0 | 29.9 | 0.00 |
| 6/2/2026 | 95 | 82.5 | 76 | 76 | 71.6 | 63 | 94 | 72.7 | 37 | 18 | 8.0 | 0 | 29.9 | 29.9 | 29.8 | 0.11 |
| 6/1/2026 | 90 | 82.2 | 78 | 75 | 73.2 | 69 | 88 | 74.6 | 57 | 29 | 11.1 | 5 | 29.9 | 29.9 | 29.8 | 0.30 |